createdAt,value
2022-11-01T00:01:00.447Z,12.86
2022-11-01T00:03:31.314Z,12.84
2022-11-01T00:06:02.216Z,12.83
2022-11-01T00:08:33.267Z,12.82
2022-11-01T00:11:09.145Z,12.81
2022-11-01T00:13:39.932Z,12.80
2022-11-01T00:16:11.289Z,12.80
2022-11-01T00:18:42.572Z,12.80
2022-11-01T00:21:14.542Z,12.81
2022-11-01T00:23:46.370Z,12.81
2022-11-01T00:26:20.163Z,12.82
2022-11-01T00:28:51.922Z,12.82
2022-11-01T00:31:23.464Z,12.83
2022-11-01T00:33:54.402Z,12.83
2022-11-01T00:36:25.272Z,12.82
2022-11-01T00:38:56.190Z,12.79
2022-11-01T00:41:27.080Z,12.77
2022-11-01T00:43:57.938Z,12.73
2022-11-01T00:46:29.271Z,12.71
2022-11-01T00:49:00.278Z,12.68
2022-11-01T00:51:31.286Z,12.66
2022-11-01T00:54:02.403Z,12.62
2022-11-01T00:56:33.254Z,12.59
2022-11-01T00:59:04.179Z,12.56
2022-11-01T01:01:35.198Z,12.54
2022-11-01T01:04:07.205Z,12.52
2022-11-01T01:06:37.982Z,12.51
2022-11-01T01:09:08.773Z,12.51
2022-11-01T01:11:39.727Z,12.50
2022-11-01T01:14:10.800Z,12.49
2022-11-01T01:19:17.362Z,12.51
2022-11-01T01:21:48.239Z,12.53
2022-11-01T01:24:19.050Z,12.55
2022-11-01T01:26:50.335Z,12.56
2022-11-01T01:29:21.196Z,12.58
2022-11-01T01:31:52.544Z,12.59
2022-11-01T01:34:23.603Z,12.60
2022-11-01T01:36:54.384Z,12.60
2022-11-01T01:39:25.384Z,12.61
2022-11-01T01:41:59.401Z,12.60
2022-11-01T01:45:15.145Z,12.60
2022-11-01T01:47:49.240Z,12.59
2022-11-01T01:50:24.508Z,12.59
2022-11-01T01:53:00.540Z,12.59
2022-11-01T01:55:36.620Z,12.59
2022-11-01T01:58:10.448Z,12.58
2022-11-01T02:00:43.222Z,12.57
2022-11-01T02:03:15.560Z,12.56
2022-11-01T02:05:51.856Z,12.54
2022-11-01T02:08:28.267Z,12.52
2022-11-01T02:11:02.017Z,12.51
2022-11-01T02:13:33.286Z,12.50
2022-11-01T02:16:20.714Z,12.50
2022-11-01T02:19:01.583Z,12.50
2022-11-01T02:22:02.310Z,12.50
2022-11-01T02:25:10.957Z,12.50
2022-11-01T02:27:55.605Z,12.49
2022-11-01T02:30:33.083Z,12.48
2022-11-01T02:33:14.830Z,12.49
2022-11-01T02:35:59.383Z,12.49
2022-11-01T02:38:36.208Z,12.47
2022-11-01T02:41:13.116Z,12.46
2022-11-01T02:43:50.391Z,12.44
2022-11-01T02:46:41.197Z,12.42
2022-11-01T02:49:16.599Z,12.41
2022-11-01T02:51:49.612Z,12.38
2022-11-01T02:54:24.443Z,12.35
2022-11-01T02:56:55.900Z,12.33
2022-11-01T02:59:29.364Z,12.31
2022-11-01T03:02:05.928Z,12.28
2022-11-01T03:04:37.463Z,12.26
2022-11-01T03:07:12.846Z,12.24
2022-11-01T03:09:44.533Z,12.22
2022-11-01T03:12:25.616Z,12.20
2022-11-01T03:15:01.495Z,12.19
2022-11-01T03:17:34.936Z,12.18
2022-11-01T03:20:10.384Z,12.17
2022-11-01T03:22:45.253Z,12.15
2022-11-01T03:25:41.030Z,12.13
2022-11-01T03:28:16.482Z,12.11
2022-11-01T03:30:51.353Z,12.10
2022-11-01T03:33:25.229Z,12.09
2022-11-01T03:36:02.194Z,12.07
2022-11-01T03:38:38.495Z,12.06
2022-11-01T03:41:14.977Z,12.05
2022-11-01T03:43:47.465Z,12.02
2022-11-01T03:46:18.742Z,12.00
2022-11-01T03:48:49.577Z,11.98
2022-11-01T03:51:20.504Z,11.96
2022-11-01T03:53:51.292Z,11.94
2022-11-01T03:56:22.249Z,11.95
2022-11-01T03:58:53.144Z,11.94
2022-11-01T04:01:24.070Z,11.92
2022-11-01T04:03:55.033Z,11.90
2022-11-01T04:06:25.857Z,11.88
2022-11-01T04:08:56.800Z,11.86
2022-11-01T04:11:27.660Z,11.85
2022-11-01T04:14:18.526Z,11.84
2022-11-01T04:17:06.849Z,11.82
2022-11-01T04:19:55.485Z,11.79
2022-11-01T04:22:26.802Z,11.76
2022-11-01T04:24:57.661Z,11.74
2022-11-01T04:27:28.511Z,11.76
2022-11-01T04:29:59.400Z,11.77
2022-11-01T04:32:30.190Z,11.76
2022-11-01T04:35:01.086Z,11.75
2022-11-01T04:37:32.266Z,11.74
2022-11-01T04:40:03.131Z,11.72
2022-11-01T04:42:35.098Z,11.72
2022-11-01T04:45:07.508Z,11.71
2022-11-01T04:47:38.386Z,11.70
2022-11-01T04:50:09.972Z,11.71
2022-11-01T04:52:40.834Z,11.72
2022-11-01T04:55:12.109Z,11.74
2022-11-01T04:57:43.634Z,11.76
2022-11-01T05:00:16.673Z,11.78
2022-11-01T05:02:47.551Z,11.79
2022-11-01T05:05:20.325Z,11.79
2022-11-01T05:07:51.194Z,11.79
2022-11-01T05:10:21.977Z,11.80
2022-11-01T05:12:52.802Z,11.80
2022-11-01T05:15:23.758Z,11.80
2022-11-01T05:17:54.641Z,11.78
2022-11-01T05:20:25.850Z,11.78
2022-11-01T05:23:01.303Z,11.77
2022-11-01T05:25:37.019Z,11.74
2022-11-01T05:28:14.650Z,11.74
2022-11-01T05:30:45.954Z,11.75
2022-11-01T05:33:16.815Z,11.78
2022-11-01T05:35:47.653Z,11.80
2022-11-01T05:38:18.477Z,11.81
2022-11-01T05:40:50.618Z,11.80
2022-11-01T05:43:21.676Z,11.78
2022-11-01T05:45:52.569Z,11.76
2022-11-01T05:48:23.387Z,11.74
2022-11-01T05:50:54.171Z,11.70
2022-11-01T05:53:25.223Z,11.67
2022-11-01T05:55:58.788Z,11.64
2022-11-01T05:58:30.903Z,11.61
2022-11-01T06:01:03.776Z,11.58
2022-11-01T06:03:35.156Z,11.55
2022-11-01T06:06:06.773Z,11.52
2022-11-01T06:08:37.640Z,11.50
2022-11-01T06:11:08.835Z,11.49
2022-11-01T06:13:39.699Z,11.49
2022-11-01T06:16:11.356Z,11.49
2022-11-01T06:18:42.293Z,11.48
2022-11-01T06:21:13.232Z,11.48
2022-11-01T06:23:47.636Z,11.49
2022-11-01T06:26:19.437Z,11.50
2022-11-01T06:28:50.327Z,11.52
2022-11-01T06:31:22.133Z,11.53
2022-11-01T06:33:53.052Z,11.53
2022-11-01T06:36:24.208Z,11.52
2022-11-01T06:38:55.078Z,11.53
2022-11-01T06:41:25.962Z,11.56
2022-11-01T06:43:56.815Z,11.57
2022-11-01T06:46:28.031Z,11.59
2022-11-01T06:48:58.997Z,11.61
2022-11-01T06:51:30.545Z,11.65
2022-11-01T06:54:01.646Z,11.66
2022-11-01T06:56:32.533Z,11.68
2022-11-01T06:59:03.382Z,11.71
2022-11-01T07:01:34.371Z,11.73
2022-11-01T07:04:05.502Z,11.74
2022-11-01T07:06:36.576Z,11.77
2022-11-01T07:09:07.576Z,11.78
2022-11-01T07:11:38.840Z,11.79
2022-11-01T07:14:10.431Z,11.78
2022-11-01T07:16:41.395Z,11.77
2022-11-01T07:19:15.179Z,11.77
2022-11-01T07:21:46.223Z,11.77
2022-11-01T07:24:17.209Z,11.76
2022-11-01T07:26:48.078Z,11.77
2022-11-01T07:29:20.610Z,11.78
2022-11-01T07:31:51.422Z,11.77
2022-11-01T07:34:22.266Z,11.76
2022-11-01T07:36:56.238Z,11.77
2022-11-01T07:39:27.187Z,11.80
2022-11-01T07:42:01.560Z,11.84
2022-11-01T07:44:36.487Z,11.90
2022-11-01T07:47:08.165Z,11.94
2022-11-01T07:49:54.794Z,11.98
2022-11-01T07:52:26.733Z,12.00
2022-11-01T07:54:58.107Z,12.06
2022-11-01T07:57:29.273Z,12.11
2022-11-01T08:00:05.450Z,12.15
2022-11-01T08:02:43.424Z,12.21
2022-11-01T08:05:18.246Z,12.24
2022-11-01T08:07:49.737Z,12.27
2022-11-01T08:10:25.011Z,12.31
2022-11-01T08:13:00.903Z,12.33
2022-11-01T08:15:32.504Z,12.37
2022-11-01T08:18:10.046Z,12.39
2022-11-01T08:20:41.763Z,12.40
2022-11-01T08:23:13.604Z,12.44
2022-11-01T08:25:44.858Z,12.45
2022-11-01T08:28:23.127Z,12.51
2022-11-01T08:30:54.562Z,12.54
2022-11-01T08:33:25.681Z,12.58
2022-11-01T08:35:56.602Z,12.63
2022-11-01T08:38:27.820Z,12.68
2022-11-01T08:41:07.720Z,12.73
2022-11-01T08:43:40.684Z,12.80
2022-11-01T08:46:16.236Z,12.87
2022-11-01T08:48:52.329Z,12.92
2022-11-01T08:51:26.086Z,12.95
2022-11-01T08:54:25.949Z,12.95
2022-11-01T08:56:58.354Z,12.91
2022-11-01T08:59:29.315Z,12.87
2022-11-01T09:02:14.167Z,12.86
2022-11-01T09:04:46.013Z,12.85
2022-11-01T09:07:20.221Z,12.89
2022-11-01T09:09:51.944Z,12.93
2022-11-01T09:12:24.770Z,12.96
2022-11-01T09:14:56.132Z,13.00
2022-11-01T09:17:27.322Z,13.02
2022-11-01T09:19:58.592Z,13.03
2022-11-01T09:22:30.167Z,13.07
2022-11-01T09:25:01.471Z,13.10
2022-11-01T09:27:32.464Z,13.13
2022-11-01T09:30:03.362Z,13.17
2022-11-01T09:32:34.454Z,13.19
2022-11-01T09:35:06.172Z,13.20
2022-11-01T09:37:37.313Z,13.21
2022-11-01T09:40:10.723Z,13.25
2022-11-01T09:42:46.120Z,13.28
2022-11-01T09:45:22.315Z,13.33
2022-11-01T09:47:57.593Z,13.35
2022-11-01T09:50:33.740Z,13.38
2022-11-01T09:53:10.738Z,13.37
2022-11-01T09:55:49.160Z,13.36
2022-11-01T09:58:28.335Z,13.36
2022-11-01T10:01:11.873Z,13.36
2022-11-01T10:03:55.832Z,13.40
2022-11-01T10:06:29.280Z,13.45
2022-11-01T10:09:08.688Z,13.48
2022-11-01T10:11:59.248Z,13.52
2022-11-01T10:14:45.482Z,13.56
2022-11-01T10:17:18.848Z,13.60
2022-11-01T10:19:51.980Z,13.63
2022-11-01T10:22:34.461Z,13.67
2022-11-01T10:25:19.407Z,13.71
2022-11-01T10:28:00.871Z,13.70
2022-11-01T10:30:36.681Z,13.70
2022-11-01T10:33:22.989Z,13.71
2022-11-01T10:35:57.906Z,13.68
2022-11-01T10:38:54.159Z,13.64
2022-11-01T10:41:28.663Z,13.60
2022-11-01T10:44:04.822Z,13.56
2022-11-01T10:46:41.032Z,13.53
2022-11-01T10:49:24.824Z,13.51
2022-11-01T10:52:00.457Z,13.51
2022-11-01T10:54:36.493Z,13.48
2022-11-01T10:57:12.824Z,13.45
2022-11-01T10:59:47.594Z,13.42
2022-11-01T11:02:24.039Z,13.39
2022-11-01T11:04:56.569Z,13.38
2022-11-01T11:07:30.907Z,13.37
2022-11-01T11:10:03.193Z,13.35
2022-11-01T11:12:35.043Z,13.35
2022-11-01T11:15:18.021Z,13.32
2022-11-01T11:17:55.499Z,13.29
2022-11-01T11:20:30.362Z,13.28
2022-11-01T11:23:04.784Z,13.27
2022-11-01T11:25:38.657Z,13.27
2022-11-01T11:28:23.625Z,13.28
2022-11-01T11:30:55.205Z,13.27
2022-11-01T11:33:26.404Z,13.27
2022-11-01T11:36:00.244Z,13.27
2022-11-01T11:38:46.511Z,13.27
2022-11-01T11:41:30.032Z,13.26
2022-11-01T11:44:01.599Z,13.25
2022-11-01T11:46:32.540Z,13.24
2022-11-01T11:49:07.232Z,13.24
2022-11-01T11:51:39.557Z,13.27
2022-11-01T11:54:26.147Z,13.28
2022-11-01T11:57:12.392Z,13.27
2022-11-01T12:02:25.033Z,13.25
2022-11-01T12:04:59.409Z,13.21
2022-11-01T12:07:33.262Z,13.18
2022-11-01T12:10:06.712Z,13.14
2022-11-01T12:12:42.878Z,13.13
2022-11-01T12:18:20.052Z,13.14
2022-11-01T12:20:53.690Z,13.13
2022-11-01T12:23:32.099Z,13.14
2022-11-01T12:26:08.576Z,13.15
2022-11-01T12:28:44.678Z,13.15
2022-11-01T12:31:19.565Z,13.14
2022-11-01T12:33:57.536Z,13.14
2022-11-01T12:36:32.589Z,13.15
2022-11-01T12:39:13.648Z,13.17
2022-11-01T12:41:49.020Z,13.20
2022-11-01T12:44:36.213Z,13.21
2022-11-01T12:47:14.435Z,13.23
2022-11-01T12:49:53.201Z,13.26
2022-11-01T12:52:40.709Z,13.28
2022-11-01T12:55:21.127Z,13.31
2022-11-01T12:57:52.329Z,13.32
2022-11-01T13:00:24.724Z,13.34
2022-11-01T13:03:07.841Z,13.37
2022-11-01T13:05:50.369Z,13.39
2022-11-01T13:08:33.247Z,13.41
2022-11-01T13:11:15.939Z,13.39
2022-11-01T13:13:53.666Z,13.40
2022-11-01T13:16:31.619Z,13.40
2022-11-01T13:19:20.075Z,13.41
2022-11-01T13:21:58.339Z,13.42
2022-11-01T13:24:37.457Z,13.42
2022-11-01T13:27:16.725Z,13.41
2022-11-01T13:30:00.774Z,13.39
2022-11-01T13:32:38.338Z,13.36
2022-11-01T13:35:40.854Z,13.33
2022-11-01T13:38:22.201Z,13.28
2022-11-01T13:41:00.305Z,13.26
2022-11-01T13:43:38.945Z,13.24
2022-11-01T13:46:39.229Z,13.21
2022-11-01T13:49:58.494Z,13.19
2022-11-01T13:52:33.935Z,13.17
2022-11-01T13:55:15.232Z,13.16
2022-11-01T13:57:46.521Z,13.15
2022-11-01T14:00:38.601Z,13.14
2022-11-01T14:03:27.740Z,13.12
2022-11-01T14:06:36.615Z,13.09
2022-11-01T14:09:43.323Z,13.06
2022-11-01T14:12:33.859Z,13.02
2022-11-01T14:15:19.368Z,13.00
2022-11-01T14:18:03.986Z,12.98
2022-11-01T14:20:49.609Z,12.95
2022-11-01T14:23:54.940Z,12.94
2022-11-01T14:27:02.030Z,12.92
2022-11-01T14:29:36.804Z,12.87
2022-11-01T14:32:10.660Z,12.83
2022-11-01T14:34:45.472Z,12.82
2022-11-01T14:37:24.686Z,12.81
2022-11-01T14:40:04.177Z,12.81
2022-11-01T14:42:43.385Z,12.83
2022-11-01T14:45:28.820Z,12.84
2022-11-01T14:48:08.199Z,12.84
2022-11-01T14:50:47.977Z,12.86
2022-11-01T14:53:27.926Z,12.87
2022-11-01T14:56:16.578Z,12.88
2022-11-01T14:58:48.017Z,12.89
2022-11-01T15:01:23.629Z,12.90
2022-11-01T15:04:00.161Z,12.90
2022-11-01T15:06:32.335Z,12.90
2022-11-01T15:09:04.870Z,12.90
2022-11-01T15:11:37.371Z,12.88
2022-11-01T15:14:10.181Z,12.88
2022-11-01T15:16:45.086Z,12.87
2022-11-01T15:19:23.057Z,12.88
2022-11-01T15:21:54.332Z,12.89
2022-11-01T15:24:27.390Z,12.90
2022-11-01T15:27:05.218Z,12.91
2022-11-01T15:29:37.034Z,12.93
2022-11-01T15:32:08.075Z,12.94
2022-11-01T15:34:39.092Z,12.95
2022-11-01T15:37:24.129Z,12.95
2022-11-01T15:39:55.251Z,12.96
2022-11-01T15:42:32.208Z,12.96
2022-11-01T15:45:23.032Z,12.95
2022-11-01T15:47:54.300Z,12.93
2022-11-01T15:50:25.383Z,12.93
2022-11-01T15:52:58.304Z,12.93
2022-11-01T15:55:34.441Z,12.92
2022-11-01T15:58:08.939Z,12.91
2022-11-01T16:00:43.552Z,12.90
2022-11-01T16:03:20.554Z,12.89
2022-11-01T16:05:58.542Z,12.89
2022-11-01T16:08:36.624Z,12.91
2022-11-01T16:11:08.647Z,12.92
2022-11-01T16:13:40.793Z,12.92
2022-11-01T16:16:12.706Z,12.93
2022-11-01T16:18:46.398Z,12.94
2022-11-01T16:21:37.176Z,12.92
2022-11-01T16:24:15.888Z,12.90
2022-11-01T16:27:00.184Z,12.87
2022-11-01T16:29:52.023Z,12.84
2022-11-01T16:32:27.269Z,12.82
2022-11-01T16:34:56.911Z,12.82
2022-11-01T16:37:29.614Z,12.80
2022-11-01T16:40:20.578Z,12.80
2022-11-01T16:42:52.456Z,12.78
2022-11-01T16:45:23.933Z,12.77
2022-11-01T16:47:58.267Z,12.74
2022-11-01T16:50:31.582Z,12.71
2022-11-01T16:53:03.444Z,12.66
2022-11-01T16:55:36.460Z,12.63
2022-11-01T16:58:11.532Z,12.61
2022-11-01T17:00:43.072Z,12.57
2022-11-01T17:03:15.800Z,12.53
2022-11-01T17:05:47.215Z,12.47
2022-11-01T17:08:21.690Z,12.41
2022-11-01T17:10:53.568Z,12.38
2022-11-01T17:13:24.829Z,12.34
2022-11-01T17:15:55.778Z,12.32
2022-11-01T17:18:30.558Z,12.33
2022-11-01T17:21:03.526Z,12.34
2022-11-01T17:23:35.893Z,12.34
2022-11-01T17:26:09.421Z,12.34
2022-11-01T17:28:41.528Z,12.34
2022-11-01T17:31:12.533Z,12.33
2022-11-01T17:33:45.112Z,12.33
2022-11-01T17:36:18.678Z,12.33
2022-11-01T17:38:50.449Z,12.34
2022-11-01T17:41:21.892Z,12.33
2022-11-01T17:43:52.917Z,12.34
2022-11-01T17:46:27.483Z,12.33
2022-11-01T17:48:58.493Z,12.33
2022-11-01T17:51:30.164Z,12.33
2022-11-01T17:54:01.251Z,12.31
2022-11-01T17:56:32.394Z,12.31
2022-11-01T17:59:03.835Z,12.31
2022-11-01T18:01:34.960Z,12.31
2022-11-01T18:04:14.116Z,12.32
2022-11-01T18:06:45.261Z,12.32
2022-11-01T18:09:24.746Z,12.34
2022-11-01T18:12:06.659Z,12.32
2022-11-01T18:14:49.904Z,12.32
2022-11-01T18:17:36.781Z,12.32
2022-11-01T18:20:21.691Z,12.31
2022-11-01T18:23:03.210Z,12.32
2022-11-01T18:25:49.491Z,12.35
2022-11-01T18:28:25.441Z,12.35
2022-11-01T18:30:58.186Z,12.37
2022-11-01T18:33:38.311Z,12.39
2022-11-01T18:36:18.980Z,12.38
2022-11-01T18:38:59.293Z,12.39
2022-11-01T18:41:30.747Z,12.38
2022-11-01T18:44:04.669Z,12.37
2022-11-01T18:46:43.558Z,12.36
2022-11-01T18:49:15.498Z,12.33
2022-11-01T18:51:49.541Z,12.30
2022-11-01T18:54:32.955Z,12.27
2022-11-01T18:57:18.536Z,12.25
2022-11-01T18:59:55.817Z,12.23
2022-11-01T19:02:28.412Z,12.22
2022-11-01T19:05:15.413Z,12.21
2022-11-01T19:08:20.869Z,12.17
2022-11-01T19:10:44.799Z,12.12
2022-11-01T19:13:24.452Z,12.09
2022-11-01T19:15:58.066Z,12.06
2022-11-01T19:18:29.949Z,12.04
2022-11-01T19:21:03.678Z,12.01
2022-11-01T19:23:38.408Z,11.98
2022-11-01T19:26:19.594Z,11.95
2022-11-01T19:28:52.614Z,11.94
2022-11-01T19:31:34.542Z,11.92
2022-11-01T19:34:18.855Z,11.91
2022-11-01T19:36:53.256Z,11.90
2022-11-01T19:39:28.014Z,11.91
2022-11-01T19:42:02.409Z,11.91
2022-11-01T19:44:52.964Z,11.90
2022-11-01T19:47:39.208Z,11.90
2022-11-01T19:50:23.612Z,11.90
2022-11-01T19:53:00.204Z,11.90
2022-11-01T19:55:51.097Z,11.90
2022-11-01T19:58:28.679Z,11.90
2022-11-01T20:01:31.570Z,11.89
2022-11-01T20:04:05.734Z,11.89
2022-11-01T20:06:46.754Z,11.90
2022-11-01T20:09:22.890Z,11.90
2022-11-01T20:11:54.716Z,11.90
2022-11-01T20:14:26.207Z,11.90
2022-11-01T20:16:57.279Z,11.89
2022-11-01T20:19:28.841Z,11.90
2022-11-01T20:22:00.252Z,11.91
2022-11-01T20:24:31.849Z,11.91
2022-11-01T20:27:03.922Z,11.91
2022-11-01T20:29:35.563Z,11.90
2022-11-01T20:32:07.503Z,11.89
2022-11-01T20:34:38.739Z,11.89
2022-11-01T20:37:27.493Z,11.88
2022-11-01T20:40:01.310Z,11.88
2022-11-01T20:42:32.631Z,11.87
2022-11-01T20:45:03.500Z,11.88
2022-11-01T20:47:34.530Z,11.87
2022-11-01T20:50:08.261Z,11.88
2022-11-01T20:52:40.197Z,11.89
2022-11-01T20:55:14.083Z,11.88
2022-11-01T20:57:45.255Z,11.88
2022-11-01T21:00:19.708Z,11.86
2022-11-01T21:02:50.717Z,11.85
2022-11-01T21:05:28.217Z,11.85
2022-11-01T21:08:09.714Z,11.84
2022-11-01T21:10:41.888Z,11.82
2022-11-01T21:13:31.310Z,11.81
2022-11-01T21:16:04.030Z,11.81
2022-11-01T21:18:38.059Z,11.80
2022-11-01T21:21:46.228Z,11.79
2022-11-01T21:24:39.231Z,11.78
2022-11-01T21:30:17.657Z,11.78
2022-11-01T21:32:49.345Z,11.78
2022-11-01T21:35:41.064Z,11.79
2022-11-01T21:38:38.732Z,11.79
2022-11-01T21:41:24.532Z,11.79
2022-11-01T21:43:57.821Z,11.78
2022-11-01T21:46:36.709Z,11.78
2022-11-01T21:49:24.301Z,11.77
2022-11-01T21:51:56.382Z,11.77
2022-11-01T21:54:28.048Z,11.76
2022-11-01T21:56:59.316Z,11.75
2022-11-01T21:59:30.878Z,11.74
2022-11-01T22:02:02.887Z,11.74
2022-11-01T22:04:34.348Z,11.74
2022-11-01T22:07:07.021Z,11.75
2022-11-01T22:09:38.614Z,11.75
2022-11-01T22:12:10.218Z,11.76
2022-11-01T22:14:41.171Z,11.76
2022-11-01T22:17:12.198Z,11.75
2022-11-01T22:19:43.055Z,11.75
2022-11-01T22:22:13.926Z,11.75
2022-11-01T22:24:45.054Z,11.74
2022-11-01T22:27:16.531Z,11.75
2022-11-01T22:29:47.725Z,11.74
2022-11-01T22:32:19.130Z,11.74
2022-11-01T22:34:50.177Z,11.73
2022-11-01T22:37:21.217Z,11.73
2022-11-01T22:39:53.168Z,11.73
2022-11-01T22:42:26.015Z,11.71
2022-11-01T22:44:57.373Z,11.70
2022-11-01T22:47:29.930Z,11.68
2022-11-01T22:50:04.064Z,11.66
2022-11-01T22:52:38.619Z,11.65
2022-11-01T22:55:21.957Z,11.63
2022-11-01T22:57:58.907Z,11.61
2022-11-01T23:00:36.322Z,11.59
2022-11-01T23:03:21.516Z,11.58
2022-11-01T23:05:56.663Z,11.57
2022-11-01T23:08:30.673Z,11.55
2022-11-01T23:11:03.345Z,11.54
2022-11-01T23:13:53.506Z,11.54
2022-11-01T23:16:27.418Z,11.52
2022-11-01T23:19:01.959Z,11.51
2022-11-01T23:21:33.131Z,11.50
2022-11-01T23:24:04.163Z,11.50
2022-11-01T23:26:35.021Z,11.50
2022-11-01T23:29:06.072Z,11.49
2022-11-01T23:31:36.971Z,11.48
2022-11-01T23:34:10.439Z,11.48
2022-11-01T23:36:41.423Z,11.47
2022-11-01T23:39:15.495Z,11.47
2022-11-01T23:41:49.427Z,11.46
2022-11-01T23:44:29.060Z,11.45
2022-11-01T23:47:03.837Z,11.45
2022-11-01T23:49:35.859Z,11.43
2022-11-01T23:52:22.670Z,11.42
2022-11-01T23:54:53.558Z,11.42
2022-11-01T23:57:24.750Z,11.42
2022-11-01T23:59:55.820Z,11.43
